Tropical Cyclones
[Index]
Main Index Home Page Stock Weather Photos Extreme Storms Discussion Storm News and Storm Chasing Reports Tropical Cyclones / Hurricanes / Typhoons Weather Data and Links Wild Fires / Bushfires Weather Observation Techniques Weather Picture Catalogue Tornado Pictures and Reports Stock Video Footage and DVDs for sale
Season 2007-2008 Tropical Cyclone TROP-DEPRESSION-01 Track Map
Season 2007-2008 Summaries (Operational Data): [AU] [SIO] [SPAC] [SH]
<<- Previous TC | 2007-2008 Season | Next TC ->>

click for intensity scale information  Lat/long Grid: Show Hide

 Date Labels: Show Hide

Operational Tropical Cyclone Data

Name: TROP-DEPRESSION-01
Number: 08PA

24 Nov 2007 18:00 UTC to 02 Dec 2007 21:00 UTC

    date/time    lat    long     hPa   cat  kts
2007-11-24 18   16.6   165.5    1004         25          
2007-11-24 21   16.3   165.0    1002         25          
2007-11-25 06   17.0   165.5    1002         25          
2007-11-25 18   18.5   168.5    1000         30          
2007-11-26 00   18.5   168.5    1000         30          
2007-11-26 06   18.2   168.5    1001         25          
2007-11-26 18   18.0   170.8    1001         25          
2007-11-26 21   18.2   171.5    1002         25          
2007-11-27 06   17.7   172.1    1002         25          
2007-11-27 18   17.1   174.5    1002         25          
2007-11-27 21   16.3   174.8    1002         25          
2007-11-28 06   15.7   178.0    1002         25          
2007-11-28 21   15.0   179.5    1005         20          
2007-11-29 06   15.0   179.5    1005         20          
2007-11-29 18   17.0   173.0W   1005         20          
2007-11-30 06   15.0   169.0W   1005         25          
2007-11-30 18   17.0   168.0W   1004         25          
2007-11-30 21   16.4   166.5W   1004         25          
2007-12-01 06   17.1   164.2W   1004         25          
2007-12-01 08   17.6   164.4W   1004         25          
2007-12-01 18   19.7   161.2W   1004         25          
2007-12-01 21   19.5   161.5W    999         25          
2007-12-02 06   22.4   157.6W   1000         25          
2007-12-02 18   24.0   156.0W   1008         25          
2007-12-02 21   21.5   153.0W   1008         25          
Winds are 10-min average.

Tropical cyclone tracks developed by Michael Bath using operational warnings and advisories and Google Maps.


[Australian Severe Weather index] [Copyright Notice] [Email Contacts] [Search This Site] [Privacy Policy]
Document: tropical_cyclone_trop-depression-01.htm Updated: 2 May 2017